Pine Galaxy — C6TT5 — position and weather

sailwx.info

Track history (hours):
 
Tides and Currents Weather Stations Pressure Air Temp Water Temp Dewpoint Dewpoint Depression Visibility Wind Speed Wind Dir Waves Ship Positions

Pine Galaxy

Last reported at 2017-Mar-04 17:12 UTC. Time now 2017-Mar-23 20:14 UTC.
Position N 01°56' E 102°16'.
Warning: this ship's position is 19 days out of date.

Length 148 m; draft 10 m.

Type: Tanker. MMSI: 311772000.

Date/timePositionNaut miles runAvg speedWind from/ knotsBaromVisibWave heightAir tempDewpointWater temp
2017-Mar-04 17:12N 01°56' E 102°16'812.5
2017-Mar-04 16:33N 01°53' E 102°23'1812.6
2017-Mar-04 15:09N 01°46' E 102°39'5214.6
2017-Mar-04 11:33N 01°17' E 103°23'1514.6
2017-Mar-04 10:33N 01°11' E 103°36'3 3.2
2017-Mar-04 09:30N 01°14' E 103°39'0 0.1
2017-Mar-04 08:33N 01°14' E 103°39'0 0.0
2017-Mar-04 07:30N 01°14' E 103°39'0 0.1
2017-Mar-04 06:27N 01°14' E 103°39'0 0.1
2017-Mar-04 05:30N 01°14' E 103°38'0 0.1
2017-Mar-04 04:33N 01°14' E 103°39'0 0.0
2017-Mar-04 03:30N 01°14' E 103°39'0 0.0
2017-Mar-04 02:27N 01°14' E 103°39'0 0.3
2017-Mar-04 01:33N 01°13' E 103°39'5 4.2
2017-Mar-04 00:29N 01°15' E 103°43'0 0.0
2017-Mar-03 23:32N 01°15' E 103°43'0 0.0
2017-Mar-03 22:29N 01°15' E 103°43'0 0.0
2017-Mar-03 21:32N 01°15' E 103°43'0 0.0
2017-Mar-03 20:32N 01°15' E 103°43'0 0.0
2017-Mar-03 19:32N 01°15' E 103°43'0 0.0
2017-Mar-03 18:32N 01°15' E 103°43'0 0.0
2017-Mar-03 17:32N 01°15' E 103°43'0 0.0
2017-Mar-03 16:29N 01°15' E 103°43'0 0.0
2017-Mar-03 15:32N 01°15' E 103°43'0 0.0
2017-Mar-03 14:32N 01°15' E 103°43'0 0.0
2017-Mar-03 13:32N 01°15' E 103°43'0 0.0
2017-Mar-03 12:29N 01°15' E 103°43'0 0.0
2017-Mar-03 11:32N 01°15' E 103°43'1 0.9
2017-Mar-03 10:33N 01°15' E 103°42'4 3.7
2017-Mar-03 09:31N 01°14' E 103°39'0 0.1
2017-Mar-03 08:25N 01°14' E 103°38'0 0.1
2017-Mar-03 07:25N 01°14' E 103°38'0 0.1
2017-Mar-03 06:31N 01°14' E 103°38'3 3.4
2017-Mar-03 05:33N 01°11' E 103°40'5 5.4
2017-Mar-03 04:34N 01°09' E 103°45'8 7.7
2017-Mar-03 03:33N 01°12' E 103°52'8 7.9
2017-Mar-03 02:33N 01°15' E 103°59'  
Track history (hours):
 
Tides and Currents Weather Stations Pressure Air Temp Water Temp Dewpoint Dewpoint Depression Visibility Wind Speed Wind Dir Waves Ship Positions

Pine Galaxy

Last reported at 2017-Mar-04 17:12 UTC. Time now 2017-Mar-23 20:14 UTC.
Position N 01°56' E 102°16'.
Warning: this ship's position is 19 days out of date.

Length 148 m; draft 10 m.

Type: Tanker. MMSI: 311772000.

Date/timePositionNaut miles runAvg speedWind from/ knotsBaromVisibWave heightAir tempDewpointWater temp
2017-Mar-04 17:12N 01°56' E 102°16'812.5
2017-Mar-04 16:33N 01°53' E 102°23'1812.6
2017-Mar-04 15:09N 01°46' E 102°39'5214.6
2017-Mar-04 11:33N 01°17' E 103°23'1514.6
2017-Mar-04 10:33N 01°11' E 103°36'3 3.2
2017-Mar-04 09:30N 01°14' E 103°39'0 0.1
2017-Mar-04 08:33N 01°14' E 103°39'0 0.0
2017-Mar-04 07:30N 01°14' E 103°39'0 0.1
2017-Mar-04 06:27N 01°14' E 103°39'0 0.1
2017-Mar-04 05:30N 01°14' E 103°38'0 0.1
2017-Mar-04 04:33N 01°14' E 103°39'0 0.0
2017-Mar-04 03:30N 01°14' E 103°39'0 0.0
2017-Mar-04 02:27N 01°14' E 103°39'0 0.3
2017-Mar-04 01:33N 01°13' E 103°39'5 4.2
2017-Mar-04 00:29N 01°15' E 103°43'0 0.0
2017-Mar-03 23:32N 01°15' E 103°43'0 0.0
2017-Mar-03 22:29N 01°15' E 103°43'0 0.0
2017-Mar-03 21:32N 01°15' E 103°43'0 0.0
2017-Mar-03 20:32N 01°15' E 103°43'0 0.0
2017-Mar-03 19:32N 01°15' E 103°43'0 0.0
2017-Mar-03 18:32N 01°15' E 103°43'0 0.0
2017-Mar-03 17:32N 01°15' E 103°43'0 0.0
2017-Mar-03 16:29N 01°15' E 103°43'0 0.0
2017-Mar-03 15:32N 01°15' E 103°43'0 0.0
2017-Mar-03 14:32N 01°15' E 103°43'0 0.0
2017-Mar-03 13:32N 01°15' E 103°43'0 0.0
2017-Mar-03 12:29N 01°15' E 103°43'0 0.0
2017-Mar-03 11:32N 01°15' E 103°43'1 0.9
2017-Mar-03 10:33N 01°15' E 103°42'4 3.7
2017-Mar-03 09:31N 01°14' E 103°39'0 0.1
2017-Mar-03 08:25N 01°14' E 103°38'0 0.1
2017-Mar-03 07:25N 01°14' E 103°38'0 0.1
2017-Mar-03 06:31N 01°14' E 103°38'3 3.4
2017-Mar-03 05:33N 01°11' E 103°40'5 5.4
2017-Mar-03 04:34N 01°09' E 103°45'8 7.7
2017-Mar-03 03:33N 01°12' E 103°52'8 7.9
2017-Mar-03 02:33N 01°15' E 103°59'  

Dump ship's entire track history